1899 NOT_NAMED (1899313N12124)


IBTrACS version v04r00. Visit IBTrACS website for data access.
Please direct all questions to the IBTrACS Q and A forum

Storm track - Intensity - Wind Radii - Intensity Data - Source Data - All data

Summary Information

Storm ID 1899313N12124
Start Nov 8 16Z
Landfall Nov 9 00Z, Nov 9 15Z
End Nov 13 04Z
ATCF IDs
Track status Best track data.

Storm track plot

Map of storm track

Intensity plots

No Intensity information for this storm


Radial wind information

No radial wind information for this storm


Position and Intensity Table

BASIN ISO_TIME_________ NATURE LAT LON
degrees north degrees east
WP 1899-11-08 16:00:00 NR 12.20 124.00
WP 18:00:00 NR 12.24 123.87
WP 21:00:00 NR 12.29 123.66
WP 1899-11-09 00:00:00 NR 12.34 123.42
WP 03:00:00 NR 12.39 123.12
WP 04:00:00 NR 12.40 123.00
WP 06:00:00 NR 12.43 122.74
WP 09:00:00 NR 12.48 122.29
WP 12:00:00 NR 12.55 121.79
WP 15:00:00 NR 12.65 121.27
WP 16:00:00 NR 12.70 121.10
WP 18:00:00 NR 12.82 120.76
WP 21:00:00 NR 13.03 120.26
WP 1899-11-10 00:00:00 NR 13.28 119.75
WP 03:00:00 NR 13.52 119.26
WP 04:00:00 NR 13.60 119.10
WP 06:00:00 NR 13.74 118.79
WP 09:00:00 NR 13.93 118.35
WP 12:00:00 NR 14.13 117.93
WP 15:00:00 NR 14.33 117.53
WP 16:00:00 NR 14.40 117.40
WP 18:00:00 NR 14.55 117.12
WP 21:00:00 NR 14.77 116.71
WP 1899-11-11 00:00:00 NR 15.00 116.33
WP 03:00:00 NR 15.23 116.00
WP 04:00:00 NR 15.30 115.90
WP 06:00:00 NR 15.43 115.72
WP 09:00:00 NR 15.63 115.50
WP 12:00:00 NR 15.82 115.32
WP 15:00:00 NR 16.03 115.15
WP 16:00:00 NR 16.10 115.10
WP 18:00:00 NR 16.25 114.97
WP 21:00:00 NR 16.49 114.77
WP 1899-11-12 00:00:00 NR 16.75 114.60
WP 03:00:00 NR 17.01 114.44
WP 04:00:00 NR 17.10 114.40
WP 06:00:00 NR 17.28 114.33
WP 09:00:00 NR 17.56 114.24
WP 12:00:00 NR 17.84 114.18
WP 15:00:00 NR 18.11 114.12
WP 16:00:00 NR 18.20 114.10
WP 18:00:00 NR 18.38 114.06
WP 21:00:00 NR 18.63 113.99
WP 1899-11-13 00:00:00 NR 18.88 113.91
WP 03:00:00 NR 19.12 113.83
WP 04:00:00 NR 19.20 113.80

Source Information

Agency Information
USA
TOKYO
CMA
HKO
NEWDELHI
REUNION
BOM
NADI
WELLINGTON
DS824
TD9636 cons_worldwide_trop_cyclone_18710101-19891231-003:Line=2079
TD9635
NEUMANN
MLC

All available IBTrACS Data

SEASON BASIN SUBBASIN ISO_TIME_________ NATURE LAT LON DIST2LAND LANDFALL IFLAG USA SSHS TD9636 LAT TD9636 LON TD9636 STAGE STORM SPEED STORM DIR
Year degrees north degrees east km km 1 degrees north degrees east kts degrees
1899 WP MM 1899-11-08 16:00:00 NR 12.20 124.00 11 10 __________O___ -1 12.20 124.00 7 4 286
1899 WP MM 18:00:00 NR 12.24 123.87 10 0 __________P___ -1 12.24 123.87 7 4 285
1899 WP MM 21:00:00 NR 12.29 123.66 10 0 __________P___ -1 12.29 123.66 7 5 283
1899 WP MM 1899-11-09 00:00:00 NR 12.34 123.42 0 0 __________P___ -1 12.34 123.42 7 5 280
1899 WP MM 03:00:00 NR 12.39 123.12 21 21 __________P___ -1 12.39 123.12 7 6 279
1899 WP MM 04:00:00 NR 12.40 123.00 31 31 __________O___ -1 12.40 123.00 7 7 277
1899 WP MM 06:00:00 NR 12.43 122.74 58 58 __________P___ -1 12.43 122.74 7 8 276
1899 WP MM 09:00:00 NR 12.48 122.29 76 24 __________P___ -1 12.48 122.29 7 9 277
1899 WP MM 12:00:00 NR 12.55 121.79 24 0 __________P___ -1 12.55 121.79 7 10 280
1899 WP MM 15:00:00 NR 12.65 121.27 0 0 __________P___ -1 12.65 121.27 7 10 283
1899 WP MM 16:00:00 NR 12.70 121.10 0 0 __________O___ -1 12.70 121.10 7 10 288
1899 WP MM 18:00:00 NR 12.82 120.76 0 10 __________P___ -1 12.82 120.76 7 11 292
1899 WP MM 21:00:00 NR 13.03 120.26 31 34 __________P___ -1 13.03 120.26 7 11 295
1899 WP MM 1899-11-10 00:00:00 NR 13.28 119.75 65 65 __________P___ -1 13.28 119.75 7 11 297
1899 WP MM 03:00:00 NR 13.52 119.26 108 119 __________P___ -1 13.52 119.26 7 11 297
1899 WP MM 04:00:00 NR 13.60 119.10 131 131 __________O___ -1 13.60 119.10 7 10 295
1899 WP MM 06:00:00 NR 13.74 118.79 165 165 __________P___ -1 13.74 118.79 7 10 295
1899 WP MM 09:00:00 NR 13.93 118.35 209 213 __________P___ -1 13.93 118.35 7 9 295
1899 WP MM 12:00:00 NR 14.13 117.93 249 246 __________P___ -1 14.13 117.93 7 9 296
1899 WP MM 15:00:00 NR 14.33 117.53 285 281 __________P___ -1 14.33 117.53 7 9 298
1899 WP MM 16:00:00 NR 14.40 117.40 291 291 __________O___ -1 14.40 117.40 7 9 298
1899 WP MM 18:00:00 NR 14.55 117.12 317 313 __________P___ -1 14.55 117.12 7 9 299
1899 WP MM 21:00:00 NR 14.77 116.71 348 348 __________P___ -1 14.77 116.71 7 9 301
1899 WP MM 1899-11-11 00:00:00 NR 15.00 116.33 381 378 __________P___ -1 15.00 116.33 7 8 303
1899 WP MM 03:00:00 NR 15.23 116.00 406 403 __________P___ -1 15.23 116.00 7 8 305
1899 WP MM 04:00:00 NR 15.30 115.90 414 414 __________O___ -1 15.30 115.90 4 7 308
1899 WP MM 06:00:00 NR 15.43 115.72 433 431 __________P___ -1 15.43 115.72 4 6 311
1899 WP MM 09:00:00 NR 15.63 115.50 451 450 __________P___ -1 15.63 115.50 4 6 315
1899 WP MM 12:00:00 NR 15.82 115.32 471 470 __________P___ -1 15.82 115.32 4 5 320
1899 WP MM 15:00:00 NR 16.03 115.15 481 491 __________P___ -1 16.03 115.15 4 5 323
1899 WP MM 16:00:00 NR 16.10 115.10 491 491 __________O___ -1 16.10 115.10 4 6 321
1899 WP MM 18:00:00 NR 16.25 114.97 503 503 __________P___ -1 16.25 114.97 4 6 322
1899 WP MM 21:00:00 NR 16.49 114.77 523 493 __________P___ -1 16.49 114.77 4 6 324
1899 WP MM 1899-11-12 00:00:00 NR 16.75 114.60 493 459 __________P___ -1 16.75 114.60 4 6 328
1899 WP MM 03:00:00 NR 17.01 114.44 459 454 __________P___ -1 17.01 114.44 4 6 332
1899 WP MM 04:00:00 NR 17.10 114.40 454 432 __________O___ -1 17.10 114.40 4 6 338
1899 WP MM 06:00:00 NR 17.28 114.33 432 404 __________P___ -1 17.28 114.33 4 6 342
1899 WP MM 09:00:00 NR 17.56 114.24 404 392 __________P___ -1 17.56 114.24 4 6 346
1899 WP MM 12:00:00 NR 17.84 114.18 392 366 __________P___ -1 17.84 114.18 4 6 348
1899 WP MM 15:00:00 NR 18.11 114.12 366 361 __________P___ -1 18.11 114.12 4 6 347
1899 WP MM 16:00:00 NR 18.20 114.10 361 352 __________O___ -1 18.20 114.10 4 5 347
1899 WP MM 18:00:00 NR 18.38 114.06 352 334 __________P___ -1 18.38 114.06 4 5 345
1899 WP MM 21:00:00 NR 18.63 113.99 334 314 __________P___ -1 18.63 113.99 4 5 344
1899 WP MM 1899-11-13 00:00:00 NR 18.88 113.91 314 299 __________P___ -1 18.88 113.91 4 5 343
1899 WP MM 03:00:00 NR 19.12 113.83 299 297 __________P___ -1 19.12 113.83 4 5 342
1899 WP MM 04:00:00 NR 19.20 113.80 297 __________O___ -1 19.20 113.80 4 5 0